Lake Stevens, WA

10:00 PM PST on December 17, 2014 (GMT -0800)
1 mi south of Frontier Village | Change Station
CLOSE
Current Station
Personal Weather Station
Location: Lake Stevens, WA
Elevation: 436 ft
Nearby Weather Stations

Elev 436 ft 47.99 °N, 122.10 °W | Updated 52 seconds ago

Mostly Cloudy
Mostly Cloudy
42.8 °F
Feels Like 43 °F
N
0.0
Wind Variable Wind from ESE
Gusts 0.0 mph

Today
High -- | Low -- °F
--% Chance of Precip.
Yesterday
High -- | Low -- °F
Precip. -- in
7:53 AM 4:16 PM
Waning Crescent, 17% visible
Pressure 29.91 in
Visibility 10.0 miles
Clouds Overcast 3400 ft
Windchill 43 °F
Dew Point 37 °F
Humidity 81%
Rainfall 0.00 in
Snow Depth Not available.
UV 0 out of 12
Pollen .30 out of 12
Air Quality Not available.
Flu Activity Not available.
METAR KPAE 180553Z 16006KT 10SM -RA OVC034 07/06 A2991 RMK AO2 SLP129 P0001 60002 T00720056 10083 20072 51004

More Conditions Fewer Conditions

Pressure 29.91 in
Visibility 10.0 miles
Clouds Overcast 3400 ft
Windchill 43 °F
Dew Point 37 °F
Humidity 81%
Rainfall 0.00 in
Snow Depth Not available.
UV 0 out of 12
Pollen .30 out of 12
Air Quality Not available.
Flu Activity Not available.
METAR KPAE 180553Z 16006KT 10SM -RA OVC034 07/06 A2991 RMK AO2 SLP129 P0001 60002 T00720056 10083 20072 51004

More Conditions Fewer Conditions

10-Day Weather Forecast

Almanac

Astronomy

Dec. 17, 2014 Rise Set
Actual Time
Civil Twilight
Nautical Twilight
Astronomical Twilight
Moon
Length of Visible Light
Length of Day
Tomorrow will be .
, % of the Moon is Illuminated

Today's Extremes

State Highs State Lows

Community

WunderPhotos

Upload Photos

1,778,896 photos uploaded!

WunderBlogs® & News

Nearby

Air Quality

  Air Quality AQ Index Pollutant
Not available.

Snow Depth

Station Depth Elevation

Earthquake Activity

City Distance Mag. Time & Date
Minimum magnitude displayed is 2.5.

Coastal Water Temperatures

Place Temperature

Nearby Weather Stations